sensor_id;sensor_type;location;lat;lon;timestamp;temperature;humidity
50907;DHT22;36882;27.680;85.304;2023-05-07T05:10:36;25.50;92.90
50907;DHT22;36882;27.680;85.304;2023-05-07T09:14:48;27.70;69.60
50907;DHT22;36882;27.680;85.304;2023-05-07T09:17:22;28.90;74.60
50907;DHT22;36882;27.680;85.304;2023-05-07T09:19:53;28.80;73.10
50907;DHT22;36882;27.680;85.304;2023-05-07T09:22:32;28.90;74.20
50907;DHT22;36882;27.680;85.304;2023-05-07T09:25:03;28.90;75.00
50907;DHT22;36882;27.680;85.304;2023-05-07T09:27:37;28.80;75.30
50907;DHT22;36882;27.680;85.304;2023-05-07T09:30:09;28.60;73.90
50907;DHT22;36882;27.680;85.304;2023-05-07T09:32:48;28.60;74.10
50907;DHT22;36882;27.680;85.304;2023-05-07T09:35:18;28.70;74.50
50907;DHT22;36882;27.680;85.304;2023-05-07T09:37:51;28.40;73.70
50907;DHT22;36882;27.680;85.304;2023-05-07T09:40:26;28.20;74.40
50907;DHT22;36882;27.680;85.304;2023-05-07T09:43:13;27.90;74.00
50907;DHT22;36882;27.680;85.304;2023-05-07T09:45:46;28.00;76.20
50907;DHT22;36882;27.680;85.304;2023-05-07T09:48:20;27.80;75.90
50907;DHT22;36882;27.680;85.304;2023-05-07T09:50:53;27.90;75.30
50907;DHT22;36882;27.680;85.304;2023-05-07T09:53:28;27.90;75.00
50907;DHT22;36882;27.680;85.304;2023-05-07T09:55:59;27.90;74.90
50907;DHT22;36882;27.680;85.304;2023-05-07T09:58:33;27.70;74.30
50907;DHT22;36882;27.680;85.304;2023-05-07T10:01:07;27.60;75.20
50907;DHT22;36882;27.680;85.304;2023-05-07T10:03:44;27.60;74.50
50907;DHT22;36882;27.680;85.304;2023-05-07T10:06:15;27.70;75.40
50907;DHT22;36882;27.680;85.304;2023-05-07T10:08:46;27.90;72.90
50907;DHT22;36882;27.680;85.304;2023-05-07T10:11:18;28.00;73.00
50907;DHT22;36882;27.680;85.304;2023-05-07T10:13:49;28.10;72.70
50907;DHT22;36882;27.680;85.304;2023-05-07T10:16:22;28.30;73.50
50907;DHT22;36882;27.680;85.304;2023-05-07T10:18:54;28.40;73.50
50907;DHT22;36882;27.680;85.304;2023-05-07T10:21:24;28.30;71.30
50907;DHT22;36882;27.680;85.304;2023-05-07T10:24:13;28.10;70.30
50907;DHT22;36882;27.680;85.304;2023-05-07T10:26:49;28.20;71.50
50907;DHT22;36882;27.680;85.304;2023-05-07T10:35:06;28.00;69.30
50907;DHT22;36882;27.680;85.304;2023-05-07T10:37:40;27.80;69.40
50907;DHT22;36882;27.680;85.304;2023-05-07T10:40:12;27.70;69.60
50907;DHT22;36882;27.680;85.304;2023-05-07T10:42:57;27.70;70.30
50907;DHT22;36882;27.680;85.304;2023-05-07T10:45:37;27.60;70.80
50907;DHT22;36882;27.680;85.304;2023-05-07T10:48:11;27.50;72.20
50907;DHT22;36882;27.680;85.304;2023-05-07T10:50:47;27.30;71.60
50907;DHT22;36882;27.680;85.304;2023-05-07T10:55:50;26.70;72.50
50907;DHT22;36882;27.680;85.304;2023-05-07T10:58:23;26.60;73.60
50907;DHT22;36882;27.680;85.304;2023-05-07T11:01:01;26.60;73.40
50907;DHT22;36882;27.680;85.304;2023-05-07T11:03:32;26.60;73.20
50907;DHT22;36882;27.680;85.304;2023-05-07T11:06:10;26.50;73.50
50907;DHT22;36882;27.680;85.304;2023-05-07T11:14:34;26.30;74.10
50907;DHT22;36882;27.680;85.304;2023-05-07T11:17:07;26.10;74.40
50907;DHT22;36882;27.680;85.304;2023-05-07T11:19:55;26.10;75.10
50907;DHT22;36882;27.680;85.304;2023-05-07T11:25:08;26.00;75.00
50907;DHT22;36882;27.680;85.304;2023-05-07T11:27:39;26.10;74.50
50907;DHT22;36882;27.680;85.304;2023-05-07T11:30:16;25.90;75.30
50907;DHT22;36882;27.680;85.304;2023-05-07T11:32:48;25.80;75.70
50907;DHT22;36882;27.680;85.304;2023-05-07T11:35:19;25.80;75.80
50907;DHT22;36882;27.680;85.304;2023-05-07T11:37:59;25.70;76.80
50907;DHT22;36882;27.680;85.304;2023-05-07T11:40:29;25.60;74.40
50907;DHT22;36882;27.680;85.304;2023-05-07T11:43:06;25.50;72.00
50907;DHT22;36882;27.680;85.304;2023-05-07T11:45:39;25.50;71.90
50907;DHT22;36882;27.680;85.304;2023-05-07T11:48:12;25.30;71.60
50907;DHT22;36882;27.680;85.304;2023-05-07T11:53:39;25.20;71.40
50907;DHT22;36882;27.680;85.304;2023-05-07T11:56:11;25.00;70.60
50907;DHT22;36882;27.680;85.304;2023-05-07T11:58:42;24.90;71.90
50907;DHT22;36882;27.680;85.304;2023-05-07T12:01:14;24.90;73.00
50907;DHT22;36882;27.680;85.304;2023-05-07T12:03:47;24.80;72.30
50907;DHT22;36882;27.680;85.304;2023-05-07T12:06:17;24.80;71.50
50907;DHT22;36882;27.680;85.304;2023-05-07T12:08:47;24.70;70.50
50907;DHT22;36882;27.680;85.304;2023-05-07T12:11:22;24.70;71.70
50907;DHT22;36882;27.680;85.304;2023-05-07T12:13:53;24.70;71.10
50907;DHT22;36882;27.680;85.304;2023-05-07T12:16:27;24.70;71.30
50907;DHT22;36882;27.680;85.304;2023-05-07T12:18:58;24.50;70.30
50907;DHT22;36882;27.680;85.304;2023-05-07T12:21:29;24.50;70.00
50907;DHT22;36882;27.680;85.304;2023-05-07T12:23:59;24.50;69.50
50907;DHT22;36882;27.680;85.304;2023-05-07T12:26:29;24.40;69.60
50907;DHT22;36882;27.680;85.304;2023-05-07T12:28:59;24.40;69.70
50907;DHT22;36882;27.680;85.304;2023-05-07T12:31:29;24.40;69.20
50907;DHT22;36882;27.680;85.304;2023-05-07T12:34:00;24.40;69.90
50907;DHT22;36882;27.680;85.304;2023-05-07T12:36:40;24.40;70.50
50907;DHT22;36882;27.680;85.304;2023-05-07T12:39:10;24.30;71.60
50907;DHT22;36882;27.680;85.304;2023-05-07T12:41:56;24.20;70.50
50907;DHT22;36882;27.680;85.304;2023-05-07T12:44:35;24.10;72.20
50907;DHT22;36882;27.680;85.304;2023-05-07T12:47:05;23.90;72.10
50907;DHT22;36882;27.680;85.304;2023-05-07T12:49:34;23.80;71.70
50907;DHT22;36882;27.680;85.304;2023-05-07T12:52:07;23.80;71.50
50907;DHT22;36882;27.680;85.304;2023-05-07T12:54:38;23.60;71.70
50907;DHT22;36882;27.680;85.304;2023-05-07T12:57:09;23.60;72.40
50907;DHT22;36882;27.680;85.304;2023-05-07T12:59:41;23.40;72.30
50907;DHT22;36882;27.680;85.304;2023-05-07T13:02:12;23.30;73.00
50907;DHT22;36882;27.680;85.304;2023-05-07T13:04:42;23.20;72.10
50907;DHT22;36882;27.680;85.304;2023-05-07T13:07:14;23.10;72.80
50907;DHT22;36882;27.680;85.304;2023-05-07T13:09:44;23.20;73.20
50907;DHT22;36882;27.680;85.304;2023-05-07T13:12:15;23.10;72.50
50907;DHT22;36882;27.680;85.304;2023-05-07T13:14:45;23.00;71.90
50907;DHT22;36882;27.680;85.304;2023-05-07T13:17:15;23.00;73.20
50907;DHT22;36882;27.680;85.304;2023-05-07T13:19:45;23.00;73.60
50907;DHT22;36882;27.680;85.304;2023-05-07T13:22:16;22.90;74.00
50907;DHT22;36882;27.680;85.304;2023-05-07T13:24:46;22.90;73.30
50907;DHT22;36882;27.680;85.304;2023-05-07T13:27:16;22.90;74.00
50907;DHT22;36882;27.680;85.304;2023-05-07T13:29:49;22.80;73.60
50907;DHT22;36882;27.680;85.304;2023-05-07T13:32:20;22.80;74.40
50907;DHT22;36882;27.680;85.304;2023-05-07T13:34:50;22.80;73.70
50907;DHT22;36882;27.680;85.304;2023-05-07T13:37:20;22.80;74.40
50907;DHT22;36882;27.680;85.304;2023-05-07T13:39:49;22.80;74.70
50907;DHT22;36882;27.680;85.304;2023-05-07T13:42:19;22.70;74.40
50907;DHT22;36882;27.680;85.304;2023-05-07T13:44:49;22.80;75.50
50907;DHT22;36882;27.680;85.304;2023-05-07T13:47:20;22.80;75.40
50907;DHT22;36882;27.680;85.304;2023-05-07T13:49:51;22.80;75.40
50907;DHT22;36882;27.680;85.304;2023-05-07T13:52:21;22.80;76.90
50907;DHT22;36882;27.680;85.304;2023-05-07T13:54:54;22.80;76.60
50907;DHT22;36882;27.680;85.304;2023-05-07T13:57:26;22.80;75.70
50907;DHT22;36882;27.680;85.304;2023-05-07T13:59:56;22.80;74.60
50907;DHT22;36882;27.680;85.304;2023-05-07T14:02:25;22.80;74.70
50907;DHT22;36882;27.680;85.304;2023-05-07T14:04:55;22.80;74.50
50907;DHT22;36882;27.680;85.304;2023-05-07T14:07:25;22.80;74.90
50907;DHT22;36882;27.680;85.304;2023-05-07T14:09:57;22.70;74.80
50907;DHT22;36882;27.680;85.304;2023-05-07T14:12:27;22.70;75.20
50907;DHT22;36882;27.680;85.304;2023-05-07T14:14:58;22.70;75.40
50907;DHT22;36882;27.680;85.304;2023-05-07T14:17:28;22.60;75.30
50907;DHT22;36882;27.680;85.304;2023-05-07T14:19:59;22.50;75.60
50907;DHT22;36882;27.680;85.304;2023-05-07T14:22:29;22.50;76.10
50907;DHT22;36882;27.680;85.304;2023-05-07T14:24:59;22.40;76.90
50907;DHT22;36882;27.680;85.304;2023-05-07T14:27:34;22.40;76.20
50907;DHT22;36882;27.680;85.304;2023-05-07T14:30:04;22.50;77.70
50907;DHT22;36882;27.680;85.304;2023-05-07T14:32:35;22.50;76.70
50907;DHT22;36882;27.680;85.304;2023-05-07T14:35:06;22.40;77.20
50907;DHT22;36882;27.680;85.304;2023-05-07T14:37:36;22.40;78.00
50907;DHT22;36882;27.680;85.304;2023-05-07T14:40:07;22.40;77.20
50907;DHT22;36882;27.680;85.304;2023-05-07T14:42:39;22.30;77.40
50907;DHT22;36882;27.680;85.304;2023-05-07T14:45:09;22.30;79.00
50907;DHT22;36882;27.680;85.304;2023-05-07T14:47:40;22.40;78.30
50907;DHT22;36882;27.680;85.304;2023-05-07T14:50:12;22.30;78.20
50907;DHT22;36882;27.680;85.304;2023-05-07T14:52:43;22.40;79.10
50907;DHT22;36882;27.680;85.304;2023-05-07T14:55:14;22.40;79.90
50907;DHT22;36882;27.680;85.304;2023-05-07T14:57:44;22.30;80.20
50907;DHT22;36882;27.680;85.304;2023-05-07T15:00:15;22.30;80.40
50907;DHT22;36882;27.680;85.304;2023-05-07T15:02:46;22.30;81.00
50907;DHT22;36882;27.680;85.304;2023-05-07T15:05:16;22.30;80.90
50907;DHT22;36882;27.680;85.304;2023-05-07T15:07:48;22.30;81.50
50907;DHT22;36882;27.680;85.304;2023-05-07T15:10:19;22.30;81.30
50907;DHT22;36882;27.680;85.304;2023-05-07T15:12:50;22.20;81.20
50907;DHT22;36882;27.680;85.304;2023-05-07T15:15:20;22.20;81.40
50907;DHT22;36882;27.680;85.304;2023-05-07T15:17:50;22.20;81.00
50907;DHT22;36882;27.680;85.304;2023-05-07T15:20:21;22.20;80.80
50907;DHT22;36882;27.680;85.304;2023-05-07T15:22:51;22.20;80.90
50907;DHT22;36882;27.680;85.304;2023-05-07T15:25:23;22.20;81.90
50907;DHT22;36882;27.680;85.304;2023-05-07T15:27:53;22.10;81.90
50907;DHT22;36882;27.680;85.304;2023-05-07T15:30:23;22.20;82.70
50907;DHT22;36882;27.680;85.304;2023-05-07T15:32:54;22.20;81.30
50907;DHT22;36882;27.680;85.304;2023-05-07T15:35:25;22.10;82.10
50907;DHT22;36882;27.680;85.304;2023-05-07T15:37:55;22.00;82.20
50907;DHT22;36882;27.680;85.304;2023-05-07T15:40:27;21.90;82.10
50907;DHT22;36882;27.680;85.304;2023-05-07T15:42:57;21.90;82.20
50907;DHT22;36882;27.680;85.304;2023-05-07T15:45:28;21.90;83.30
50907;DHT22;36882;27.680;85.304;2023-05-07T15:48:00;21.90;84.30
50907;DHT22;36882;27.680;85.304;2023-05-07T15:50:30;21.90;84.70
50907;DHT22;36882;27.680;85.304;2023-05-07T15:53:01;21.90;85.20
50907;DHT22;36882;27.680;85.304;2023-05-07T15:55:34;22.00;83.80
50907;DHT22;36882;27.680;85.304;2023-05-07T15:58:04;22.00;83.00
50907;DHT22;36882;27.680;85.304;2023-05-07T16:00:37;21.90;83.60
50907;DHT22;36882;27.680;85.304;2023-05-07T16:03:09;21.80;85.20
50907;DHT22;36882;27.680;85.304;2023-05-07T16:05:41;21.80;84.00
50907;DHT22;36882;27.680;85.304;2023-05-07T16:08:13;21.80;85.20
50907;DHT22;36882;27.680;85.304;2023-05-07T16:10:43;21.80;85.90
50907;DHT22;36882;27.680;85.304;2023-05-07T16:13:13;21.70;86.30
50907;DHT22;36882;27.680;85.304;2023-05-07T16:15:48;21.50;85.70
50907;DHT22;36882;27.680;85.304;2023-05-07T16:18:18;21.50;87.20
50907;DHT22;36882;27.680;85.304;2023-05-07T16:20:47;21.50;88.00
50907;DHT22;36882;27.680;85.304;2023-05-07T16:23:19;21.40;87.60
50907;DHT22;36882;27.680;85.304;2023-05-07T16:25:50;21.40;88.40
50907;DHT22;36882;27.680;85.304;2023-05-07T16:28:21;21.30;88.60
50907;DHT22;36882;27.680;85.304;2023-05-07T16:30:54;21.20;89.40
50907;DHT22;36882;27.680;85.304;2023-05-07T16:33:23;21.30;89.20
50907;DHT22;36882;27.680;85.304;2023-05-07T16:35:53;21.20;88.80
50907;DHT22;36882;27.680;85.304;2023-05-07T16:38:23;21.20;88.00
50907;DHT22;36882;27.680;85.304;2023-05-07T16:40:55;21.20;89.20
50907;DHT22;36882;27.680;85.304;2023-05-07T16:43:25;21.30;88.60
50907;DHT22;36882;27.680;85.304;2023-05-07T16:45:55;21.20;88.40
50907;DHT22;36882;27.680;85.304;2023-05-07T16:48:25;21.10;88.90
50907;DHT22;36882;27.680;85.304;2023-05-07T16:50:54;21.10;88.40
50907;DHT22;36882;27.680;85.304;2023-05-07T16:53:26;21.10;88.70
50907;DHT22;36882;27.680;85.304;2023-05-07T16:55:56;21.10;89.80
50907;DHT22;36882;27.680;85.304;2023-05-07T16:58:26;20.90;89.70
50907;DHT22;36882;27.680;85.304;2023-05-07T17:00:59;20.90;89.30
50907;DHT22;36882;27.680;85.304;2023-05-07T17:03:30;20.90;89.00
50907;DHT22;36882;27.680;85.304;2023-05-07T17:06:01;20.90;89.50
50907;DHT22;36882;27.680;85.304;2023-05-07T17:08:31;20.90;89.50
50907;DHT22;36882;27.680;85.304;2023-05-07T17:11:01;20.90;90.10
50907;DHT22;36882;27.680;85.304;2023-05-07T17:13:31;20.90;89.80
50907;DHT22;36882;27.680;85.304;2023-05-07T17:16:02;20.80;90.10
50907;DHT22;36882;27.680;85.304;2023-05-07T17:18:33;20.70;89.90
50907;DHT22;36882;27.680;85.304;2023-05-07T17:21:04;20.60;90.00
50907;DHT22;36882;27.680;85.304;2023-05-07T17:23:35;20.60;90.30
50907;DHT22;36882;27.680;85.304;2023-05-07T17:26:11;20.50;90.50
50907;DHT22;36882;27.680;85.304;2023-05-07T17:28:42;20.40;90.40
50907;DHT22;36882;27.680;85.304;2023-05-07T17:31:12;20.30;90.60
50907;DHT22;36882;27.680;85.304;2023-05-07T17:33:43;20.30;91.00
50907;DHT22;36882;27.680;85.304;2023-05-07T17:36:14;20.30;91.20
50907;DHT22;36882;27.680;85.304;2023-05-07T17:38:44;20.30;91.50
50907;DHT22;36882;27.680;85.304;2023-05-07T17:41:15;20.30;91.50
50907;DHT22;36882;27.680;85.304;2023-05-07T17:43:45;20.30;91.00
50907;DHT22;36882;27.680;85.304;2023-05-07T17:46:15;20.30;91.20
50907;DHT22;36882;27.680;85.304;2023-05-07T17:48:46;20.20;91.50
50907;DHT22;36882;27.680;85.304;2023-05-07T17:51:17;20.20;91.60
50907;DHT22;36882;27.680;85.304;2023-05-07T17:53:46;20.10;91.70
50907;DHT22;36882;27.680;85.304;2023-05-07T17:56:18;20.10;91.90
50907;DHT22;36882;27.680;85.304;2023-05-07T17:58:47;20.00;92.40
50907;DHT22;36882;27.680;85.304;2023-05-07T18:01:25;20.10;92.30
50907;DHT22;36882;27.680;85.304;2023-05-07T18:03:56;20.00;92.00
50907;DHT22;36882;27.680;85.304;2023-05-07T18:06:26;20.00;91.70
50907;DHT22;36882;27.680;85.304;2023-05-07T18:08:56;20.00;92.00
50907;DHT22;36882;27.680;85.304;2023-05-07T18:11:27;20.00;91.80
50907;DHT22;36882;27.680;85.304;2023-05-07T18:14:00;20.00;91.90
50907;DHT22;36882;27.680;85.304;2023-05-07T18:16:31;20.00;92.00
50907;DHT22;36882;27.680;85.304;2023-05-07T18:19:01;19.90;92.00
50907;DHT22;36882;27.680;85.304;2023-05-07T18:21:31;19.90;92.10
50907;DHT22;36882;27.680;85.304;2023-05-07T18:24:00;19.90;92.00
50907;DHT22;36882;27.680;85.304;2023-05-07T18:26:30;19.80;92.10
50907;DHT22;36882;27.680;85.304;2023-05-07T18:29:01;19.90;92.40
50907;DHT22;36882;27.680;85.304;2023-05-07T18:31:31;19.90;92.60
50907;DHT22;36882;27.680;85.304;2023-05-07T18:34:04;19.90;92.40
50907;DHT22;36882;27.680;85.304;2023-05-07T18:36:34;19.90;91.60
50907;DHT22;36882;27.680;85.304;2023-05-07T18:39:05;19.80;91.50
50907;DHT22;36882;27.680;85.304;2023-05-07T18:41:36;19.80;91.60
50907;DHT22;36882;27.680;85.304;2023-05-07T18:44:07;19.90;91.70
50907;DHT22;36882;27.680;85.304;2023-05-07T18:46:37;19.80;92.00
50907;DHT22;36882;27.680;85.304;2023-05-07T18:49:08;19.80;91.90
50907;DHT22;36882;27.680;85.304;2023-05-07T18:51:38;19.80;91.90
50907;DHT22;36882;27.680;85.304;2023-05-07T18:54:07;19.70;92.00
50907;DHT22;36882;27.680;85.304;2023-05-07T18:56:37;19.70;92.10
50907;DHT22;36882;27.680;85.304;2023-05-07T18:59:10;19.50;91.90
50907;DHT22;36882;27.680;85.304;2023-05-07T19:01:43;19.40;92.10
50907;DHT22;36882;27.680;85.304;2023-05-07T19:04:14;19.50;92.10
50907;DHT22;36882;27.680;85.304;2023-05-07T19:06:46;19.40;92.20
50907;DHT22;36882;27.680;85.304;2023-05-07T19:09:17;19.40;92.40
50907;DHT22;36882;27.680;85.304;2023-05-07T19:11:46;19.40;92.40
50907;DHT22;36882;27.680;85.304;2023-05-07T19:14:16;19.40;92.60
50907;DHT22;36882;27.680;85.304;2023-05-07T19:16:46;19.30;92.80
50907;DHT22;36882;27.680;85.304;2023-05-07T19:19:18;19.30;93.30
50907;DHT22;36882;27.680;85.304;2023-05-07T19:21:48;19.30;93.00
50907;DHT22;36882;27.680;85.304;2023-05-07T19:24:18;19.30;92.90
50907;DHT22;36882;27.680;85.304;2023-05-07T19:26:49;19.30;93.00
50907;DHT22;36882;27.680;85.304;2023-05-07T19:29:19;19.20;92.80
50907;DHT22;36882;27.680;85.304;2023-05-07T19:31:49;19.30;93.10
50907;DHT22;36882;27.680;85.304;2023-05-07T19:34:19;19.30;93.20
50907;DHT22;36882;27.680;85.304;2023-05-07T19:36:48;19.20;92.90
50907;DHT22;36882;27.680;85.304;2023-05-07T19:39:19;19.20;93.70
50907;DHT22;36882;27.680;85.304;2023-05-07T19:41:49;19.10;93.40
50907;DHT22;36882;27.680;85.304;2023-05-07T19:44:18;19.10;93.30
50907;DHT22;36882;27.680;85.304;2023-05-07T19:46:48;19.00;93.10
50907;DHT22;36882;27.680;85.304;2023-05-07T19:49:19;19.10;93.30
50907;DHT22;36882;27.680;85.304;2023-05-07T19:51:49;19.00;93.50
50907;DHT22;36882;27.680;85.304;2023-05-07T19:54:19;19.00;93.60
50907;DHT22;36882;27.680;85.304;2023-05-07T19:56:50;19.00;93.50
50907;DHT22;36882;27.680;85.304;2023-05-07T19:59:24;19.00;93.50
50907;DHT22;36882;27.680;85.304;2023-05-07T20:01:54;18.80;93.50
50907;DHT22;36882;27.680;85.304;2023-05-07T20:04:24;18.80;93.90
50907;DHT22;36882;27.680;85.304;2023-05-07T20:06:58;18.90;93.30
50907;DHT22;36882;27.680;85.304;2023-05-07T20:09:28;18.90;93.60
50907;DHT22;36882;27.680;85.304;2023-05-07T20:11:58;18.80;94.20
50907;DHT22;36882;27.680;85.304;2023-05-07T20:14:28;18.80;94.20
50907;DHT22;36882;27.680;85.304;2023-05-07T20:16:58;18.80;94.50
50907;DHT22;36882;27.680;85.304;2023-05-07T20:19:28;18.80;94.70
50907;DHT22;36882;27.680;85.304;2023-05-07T20:21:58;18.70;94.20
50907;DHT22;36882;27.680;85.304;2023-05-07T20:24:28;18.70;93.70
50907;DHT22;36882;27.680;85.304;2023-05-07T20:26:58;18.70;93.20
50907;DHT22;36882;27.680;85.304;2023-05-07T20:29:28;18.70;93.10
50907;DHT22;36882;27.680;85.304;2023-05-07T20:31:58;18.80;92.80
50907;DHT22;36882;27.680;85.304;2023-05-07T20:34:29;18.70;93.00
50907;DHT22;36882;27.680;85.304;2023-05-07T20:37:00;18.60;92.50
50907;DHT22;36882;27.680;85.304;2023-05-07T20:39:32;18.60;93.10
50907;DHT22;36882;27.680;85.304;2023-05-07T20:42:01;18.60;93.40
50907;DHT22;36882;27.680;85.304;2023-05-07T20:44:35;18.40;93.70
50907;DHT22;36882;27.680;85.304;2023-05-07T20:47:06;18.40;94.00
50907;DHT22;36882;27.680;85.304;2023-05-07T20:49:36;18.40;93.80
50907;DHT22;36882;27.680;85.304;2023-05-07T20:52:06;18.40;94.00
50907;DHT22;36882;27.680;85.304;2023-05-07T20:54:36;18.40;93.90
50907;DHT22;36882;27.680;85.304;2023-05-07T20:57:08;18.30;94.20
50907;DHT22;36882;27.680;85.304;2023-05-07T20:59:38;18.30;94.10
50907;DHT22;36882;27.680;85.304;2023-05-07T21:02:09;18.20;94.30
50907;DHT22;36882;27.680;85.304;2023-05-07T21:04:39;18.30;94.40
50907;DHT22;36882;27.680;85.304;2023-05-07T21:07:11;18.30;94.20
50907;DHT22;36882;27.680;85.304;2023-05-07T21:09:40;18.30;93.90
50907;DHT22;36882;27.680;85.304;2023-05-07T21:12:10;18.30;94.00
50907;DHT22;36882;27.680;85.304;2023-05-07T21:14:41;18.30;94.50
50907;DHT22;36882;27.680;85.304;2023-05-07T21:17:11;18.20;94.50
50907;DHT22;36882;27.680;85.304;2023-05-07T21:19:41;18.20;94.30
50907;DHT22;36882;27.680;85.304;2023-05-07T21:22:10;18.20;94.10
50907;DHT22;36882;27.680;85.304;2023-05-07T21:24:40;18.20;94.30
50907;DHT22;36882;27.680;85.304;2023-05-07T21:27:10;18.20;94.80
50907;DHT22;36882;27.680;85.304;2023-05-07T21:29:40;18.10;95.00
50907;DHT22;36882;27.680;85.304;2023-05-07T21:32:09;18.10;94.90
50907;DHT22;36882;27.680;85.304;2023-05-07T21:34:40;18.10;94.90
50907;DHT22;36882;27.680;85.304;2023-05-07T21:37:12;18.10;95.10
50907;DHT22;36882;27.680;85.304;2023-05-07T21:39:42;18.10;95.30
50907;DHT22;36882;27.680;85.304;2023-05-07T21:42:12;18.10;95.30
50907;DHT22;36882;27.680;85.304;2023-05-07T21:44:42;18.10;95.30
50907;DHT22;36882;27.680;85.304;2023-05-07T21:47:12;18.00;95.50
